Time;durP1;ratioP1;P1;durP2;ratioP2;P2;SDS_P1;SDS_P2;PMS_P1;PMS_P2;Temp;Humidity;BMP_temperature;BMP_pressure;BME280_temperature;BME280_humidity;BME280_pressure;Samples;Min_cycle;Max_cycle;Signal;HPM_P1;HPM_P2
2022/07/20 00:00:02;;;;;;;5.10;2.30;;;;;;;20.68;50.44;97199.91;108810;1264;22552;-83
2022/07/20 00:03:03;;;;;;;4.50;2.80;;;;;;;20.66;50.41;97195.45;108778;1264;22657;-83
2022/07/20 00:05:37;;;;;;;3.40;2.80;;;;;;;20.67;50.29;97193.65;108594;1264;143307;-83
2022/07/20 00:08:12;;;;;;;4.50;2.60;;;;;;;20.62;50.43;97195.23;108774;1264;22528;-83
2022/07/20 00:13:40;;;;;;;4.90;2.50;;;;;;;20.75;50.25;97202.88;108814;1263;22545;-83
2022/07/20 00:16:15;;;;;;;4.90;2.70;;;;;;;20.74;50.15;97198.83;108586;1264;111850;-83
2022/07/20 00:18:57;;;;;;;3.20;2.30;;;;;;;20.69;50.14;97200.27;108838;1264;22563;-83
2022/07/20 00:21:28;;;;;;;3.40;2.40;;;;;;;20.52;50.28;97200.70;108817;1264;22513;-83
2022/07/20 00:24:02;;;;;;;3.70;2.80;;;;;;;20.42;50.47;97199.78;108811;1262;22551;-83
2022/07/20 00:26:38;;;;;;;8.00;3.00;;;;;;;20.30;50.52;97196.77;108635;1264;83271;-83
2022/07/20 00:29:09;;;;;;;5.00;2.40;;;;;;;20.24;50.70;97196.45;108835;1264;22571;-83
2022/07/20 00:31:45;;;;;;;5.20;3.20;;;;;;;20.18;50.92;97195.39;108814;1263;22490;-83
2022/07/20 00:34:26;;;;;;;7.90;3.70;;;;;;;20.18;51.06;97194.38;108845;1264;22565;-83
2022/07/20 00:37:06;;;;;;;6.20;3.20;;;;;;;20.16;51.10;97189.92;108666;1264;83353;-83
2022/07/20 00:39:40;;;;;;;4.40;2.60;;;;;;;20.10;51.11;97191.08;108807;1263;24235;-83
2022/07/20 00:42:14;;;;;;;5.90;2.80;;;;;;;20.05;51.31;97189.98;108812;1264;23434;-83
2022/07/20 00:44:48;;;;;;;5.90;2.50;;;;;;;19.99;51.28;97190.73;108841;1264;25499;-83
2022/07/20 00:47:25;;;;;;;4.60;2.80;;;;;;;19.95;51.52;97188.54;108658;1263;89340;-83
2022/07/20 00:50:08;;;;;;;5.10;2.80;;;;;;;19.90;51.70;97188.13;108800;1264;22533;-83
2022/07/20 00:52:41;;;;;;;4.60;2.80;;;;;;;19.90;51.81;97184.20;108812;1264;22700;-83
2022/07/20 00:55:18;;;;;;;4.90;2.80;;;;;;;19.94;51.90;97184.96;108601;1264;102956;-82
2022/07/20 00:57:52;;;;;;;5.60;3.20;;;;;;;19.97;51.98;97183.01;108771;1264;22574;-83
2022/07/20 01:00:28;;;;;;;4.90;2.70;;;;;;;20.00;51.89;97186.68;108759;1264;22517;-83
2022/07/20 01:03:02;;;;;;;4.10;2.80;;;;;;;20.04;51.89;97187.23;108753;1264;23376;-83
2022/07/20 01:05:33;;;;;;;4.10;2.90;;;;;;;20.07;51.89;97190.27;108523;1264;110795;-83
2022/07/20 01:08:07;;;;;;;4.30;2.60;;;;;;;20.06;51.87;97189.08;108811;1263;22535;-83
2022/07/20 01:10:38;;;;;;;4.20;2.70;;;;;;;20.08;51.98;97185.92;108771;1264;22926;-83
2022/07/20 01:13:18;;;;;;;4.90;2.90;;;;;;;20.06;51.86;97186.14;108759;1264;22647;-83
2022/07/20 01:15:50;;;;;;;4.70;2.80;;;;;;;20.02;51.93;97184.84;108659;1264;86919;-83
2022/07/20 01:18:32;;;;;;;3.70;2.60;;;;;;;20.03;51.96;97187.33;108782;1263;24236;-83
2022/07/20 01:21:10;;;;;;;4.70;2.90;;;;;;;20.02;51.94;97187.85;108742;1264;24203;-83
2022/07/20 01:23:45;;;;;;;3.90;2.70;;;;;;;20.01;51.92;97183.67;108800;1264;24259;-83
2022/07/20 01:26:20;;;;;;;5.40;3.40;;;;;;;20.04;52.00;97183.46;108517;1264;71142;-83
2022/07/20 01:28:59;;;;;;;4.60;2.70;;;;;;;20.01;51.90;97180.50;108747;1264;22527;-83
2022/07/20 01:31:37;;;;;;;6.00;2.80;;;;;;;20.05;52.03;97181.42;108760;1264;22751;-83
2022/07/20 01:34:13;;;;;;;4.80;3.30;;;;;;;20.12;51.88;97177.98;108770;1264;22548;-83
2022/07/20 01:36:48;;;;;;;5.30;2.80;;;;;;;20.16;51.85;97181.71;108630;1264;97837;-83
2022/07/20 01:39:22;;;;;;;5.20;3.20;;;;;;;20.21;51.78;97182.88;108875;1263;22644;-83
2022/07/20 01:41:57;;;;;;;4.40;2.70;;;;;;;20.24;51.79;97182.14;108843;1264;22520;-83
2022/07/20 01:44:33;;;;;;;5.00;2.60;;;;;;;20.28;51.72;97181.77;108854;1264;24231;-83
2022/07/20 01:47:10;;;;;;;6.00;2.90;;;;;;;20.29;51.65;97173.48;105231;1263;4467486;-83
2022/07/20 01:49:47;;;;;;;5.00;2.90;;;;;;;20.29;51.66;97177.27;108785;1264;22562;-84
2022/07/20 01:52:35;;;;;;;5.40;2.90;;;;;;;20.26;51.67;97176.22;108771;1264;22671;-83
2022/07/20 01:55:19;;;;;;;4.50;2.90;;;;;;;20.26;51.78;97176.73;105396;1264;2543746;-81
2022/07/20 01:57:53;;;;;;;5.20;3.20;;;;;;;20.23;51.82;97174.16;108845;1264;22531;-83
2022/07/20 02:00:28;;;;;;;5.00;2.90;;;;;;;20.15;51.74;97171.81;108823;1264;22574;-83
2022/07/20 02:03:01;;;;;;;5.60;3.00;;;;;;;20.11;51.95;97173.65;108840;1264;22523;-83
2022/07/20 02:05:47;;;;;;;3.80;2.60;;;;;;;20.11;51.92;97175.23;108479;1264;107857;-83
2022/07/20 02:08:29;;;;;;;4.60;3.00;;;;;;;20.12;51.76;97170.39;108793;1264;24230;-83
2022/07/20 02:11:06;;;;;;;5.40;3.10;;;;;;;20.14;51.81;97172.77;108768;1264;22627;-83
2022/07/20 02:13:41;;;;;;;5.20;3.10;;;;;;;20.13;51.82;97170.27;108817;1264;23575;-83
2022/07/20 02:16:23;;;;;;;5.40;2.50;;;;;;;20.08;51.84;97171.55;108593;1264;92722;-83
2022/07/20 02:19:00;;;;;;;5.70;2.90;;;;;;;20.09;51.69;97173.83;108788;1264;22654;-83
2022/07/20 02:21:37;;;;;;;5.20;2.80;;;;;;;20.09;51.80;97175.50;108819;1264;25246;-83
2022/07/20 02:24:22;;;;;;;4.70;3.40;;;;;;;20.07;51.94;97171.97;108647;1264;22655;-83
2022/07/20 02:26:58;;;;;;;5.10;3.00;;;;;;;20.04;51.87;97174.24;108433;1262;143109;-83
2022/07/20 02:29:30;;;;;;;6.40;2.90;;;;;;;20.07;51.99;97176.03;108828;1262;22539;-83
2022/07/20 02:32:10;;;;;;;5.80;3.30;;;;;;;20.04;51.91;97176.61;108847;1264;22560;-83
2022/07/20 02:34:49;;;;;;;3.70;2.60;;;;;;;19.96;52.02;97178.15;108835;1264;22742;-83
2022/07/20 02:37:22;;;;;;;5.90;3.30;;;;;;;19.89;52.22;97174.61;108664;1264;107276;-83
2022/07/20 02:39:53;;;;;;;5.50;3.10;;;;;;;19.94;52.22;97171.44;108822;1264;22566;-83
2022/07/20 02:42:28;;;;;;;4.90;3.00;;;;;;;19.97;52.22;97175.25;108819;1263;22555;-83
2022/07/20 02:45:07;;;;;;;5.10;3.70;;;;;;;19.99;52.24;97178.55;108818;1264;22538;-83
2022/07/20 02:47:47;;;;;;;4.10;2.80;;;;;;;19.96;52.27;97178.96;108829;1263;22532;-83
2022/07/20 02:50:17;;;;;;;;;;;;;;;19.96;52.33;97180.20;108802;1263;22551;-83
2022/07/20 02:52:48;;;;;;;6.30;3.80;;;;;;;19.96;52.28;97182.98;108828;1263;24034;-83
2022/07/20 02:55:29;;;;;;;6.50;2.80;;;;;;;19.96;52.48;97183.96;108633;1264;91309;-83
2022/07/20 02:58:05;;;;;;;6.50;3.40;;;;;;;19.93;52.56;97184.47;108876;1263;22537;-83
2022/07/20 03:00:36;;;;;;;4.60;3.00;;;;;;;19.89;52.65;97186.27;108859;1263;24467;-83
2022/07/20 03:03:14;;;;;;;4.10;2.90;;;;;;;19.86;52.81;97187.77;108857;1264;22558;-83
2022/07/20 03:05:48;;;;;;;5.30;3.20;;;;;;;19.80;52.96;97186.13;107324;1264;1878864;-83
2022/07/20 03:08:22;;;;;;;5.30;3.30;;;;;;;19.78;53.09;97186.96;108867;1264;22609;-83
2022/07/20 03:10:59;;;;;;;5.60;3.20;;;;;;;19.76;53.15;97186.45;108850;1264;22553;-83
2022/07/20 03:13:31;;;;;;;7.60;3.80;;;;;;;19.76;53.12;97184.42;108877;1264;22554;-83
2022/07/20 03:16:06;;;;;;;5.70;3.10;;;;;;;19.76;53.02;97184.64;108565;1264;122317;-83
2022/07/20 03:18:40;;;;;;;5.30;3.50;;;;;;;19.74;53.07;97184.21;108870;1264;22792;-83
2022/07/20 03:21:16;;;;;;;4.70;3.00;;;;;;;19.75;53.11;97183.32;108829;1262;22551;-83
2022/07/20 03:23:49;;;;;;;4.30;2.90;;;;;;;19.74;53.26;97186.33;108817;1263;23295;-83
2022/07/20 03:26:26;;;;;;;5.60;3.30;;;;;;;19.73;53.37;97180.99;108636;1262;110582;-83
2022/07/20 03:29:05;;;;;;;4.90;3.00;;;;;;;19.78;53.31;97181.59;108873;1264;24488;-83
2022/07/20 03:31:41;;;;;;;6.00;3.10;;;;;;;19.82;53.16;97184.13;108845;1263;23099;-83
2022/07/20 03:34:12;;;;;;;6.10;2.90;;;;;;;19.85;53.14;97184.41;108839;1264;23232;-83
2022/07/20 03:36:48;;;;;;;3.80;3.00;;;;;;;19.87;52.95;97188.34;105305;1264;4548781;-83
2022/07/20 03:39:25;;;;;;;5.60;3.10;;;;;;;19.89;53.22;97192.56;108787;1264;22543;-83
2022/07/20 03:41:58;;;;;;;6.80;3.20;;;;;;;19.90;53.16;97192.50;108849;1262;24092;-83
2022/07/20 03:44:30;;;;;;;5.60;3.10;;;;;;;19.91;53.23;97190.48;108829;1264;24856;-83
2022/07/20 03:47:15;;;;;;;4.90;2.80;;;;;;;19.95;53.07;97188.63;108631;1263;110990;-83
2022/07/20 03:49:50;;;;;;;5.40;3.20;;;;;;;20.00;52.90;97192.54;108864;1263;22545;-83
2022/07/20 03:52:22;;;;;;;4.70;2.80;;;;;;;20.10;52.76;97193.84;108829;1261;22649;-83
2022/07/20 03:54:57;;;;;;;5.20;3.10;;;;;;;20.16;52.54;97195.69;108840;1264;23873;-83
2022/07/20 03:57:33;;;;;;;7.20;3.50;;;;;;;20.20;52.54;97196.77;108591;1264;116596;-83
2022/07/20 04:00:08;;;;;;;3.70;2.70;;;;;;;20.20;52.63;97200.46;108816;1264;25290;-83
2022/07/20 04:02:42;;;;;;;4.70;2.90;;;;;;;20.20;52.60;97204.52;108820;1264;22693;-83
2022/07/20 04:05:16;;;;;;;5.50;3.00;;;;;;;20.17;52.62;97203.44;106991;1263;2176706;-82
2022/07/20 04:07:52;;;;;;;5.90;3.70;;;;;;;20.14;52.73;97207.41;108716;1264;22527;-83
2022/07/20 04:10:34;;;;;;;5.90;3.10;;;;;;;20.10;52.92;97206.76;108732;1264;22578;-83
2022/07/20 04:13:14;;;;;;;6.70;3.50;;;;;;;20.07;52.95;97213.96;108716;1263;22524;-82
2022/07/20 04:15:52;;;;;;;6.00;3.20;;;;;;;20.08;53.13;97215.38;108482;1264;113264;-83
2022/07/20 04:18:34;;;;;;;6.00;3.10;;;;;;;20.08;53.25;97215.00;108755;1263;22551;-82
2022/07/20 04:21:05;;;;;;;5.80;3.10;;;;;;;20.05;53.39;97210.65;108743;1263;24008;-82
2022/07/20 04:23:39;;;;;;;5.20;3.00;;;;;;;20.04;53.45;97211.92;108763;1262;22524;-83
2022/07/20 04:26:11;;;;;;;4.50;3.30;;;;;;;20.04;53.50;97212.59;108571;1264;106107;-82
2022/07/20 04:28:48;;;;;;;5.30;3.20;;;;;;;20.04;53.52;97215.83;108746;1264;22903;-82
2022/07/20 04:31:26;;;;;;;5.40;3.50;;;;;;;20.13;53.49;97214.29;108763;1264;22643;-82
2022/07/20 04:34:00;;;;;;;5.40;3.10;;;;;;;20.23;53.41;97214.27;108740;1261;24256;-82
2022/07/20 04:36:44;;;;;;;5.90;3.20;;;;;;;20.34;53.12;97218.00;108540;1262;115514;-82
2022/07/20 04:39:19;;;;;;;5.80;3.30;;;;;;;20.48;53.05;97222.66;108705;1262;22529;-82
2022/07/20 04:41:50;;;;;;;5.00;3.30;;;;;;;20.65;52.88;97226.38;108733;1263;24264;-83
2022/07/20 04:44:26;;;;;;;8.00;3.40;;;;;;;20.81;52.60;97227.09;108738;1264;25364;-83
2022/07/20 04:47:01;;;;;;;4.50;2.80;;;;;;;20.92;52.36;97224.88;108543;1264;118756;-83
2022/07/20 04:49:35;;;;;;;4.60;3.20;;;;;;;21.05;52.01;97225.52;108830;1264;22861;-83
2022/07/20 04:52:08;;;;;;;5.30;3.60;;;;;;;21.12;51.77;97225.08;108784;1264;22582;-83
2022/07/20 04:54:45;;;;;;;6.20;3.10;;;;;;;21.15;51.63;97226.04;108876;1264;22569;-82
2022/07/20 04:57:22;;;;;;;5.80;3.00;;;;;;;21.22;51.67;97224.29;107823;1263;1149835;-83
2022/07/20 04:59:56;;;;;;;4.00;2.60;;;;;;;21.30;51.40;97227.96;108839;1264;22615;-83
2022/07/20 05:02:32;;;;;;;5.90;3.10;;;;;;;21.36;51.43;97229.27;108818;1264;22553;-83
2022/07/20 05:07:54;;;;;;;6.20;3.30;;;;;;;21.69;50.80;97230.76;108738;1264;22545;-83
2022/07/20 05:10:30;;;;;;;4.30;3.40;;;;;;;21.98;50.64;97234.12;108848;1264;22717;-83
2022/07/20 05:13:10;;;;;;;5.00;2.90;;;;;;;23.22;49.65;97228.55;108828;1264;24378;-83
2022/07/20 05:15:52;;;;;;;4.80;3.20;;;;;;;25.30;47.52;97227.55;108605;1264;124357;-84
2022/07/20 05:18:25;;;;;;;6.00;3.20;;;;;;;27.28;45.07;97224.95;108871;1264;23296;-84
2022/07/20 05:21:05;;;;;;;6.70;2.80;;;;;;;28.76;42.84;97228.91;108813;1262;24234;-84
2022/07/20 05:23:37;;;;;;;3.90;2.80;;;;;;;30.08;41.17;97226.48;108846;1264;22684;-84
2022/07/20 05:26:19;;;;;;;4.60;2.80;;;;;;;31.33;38.81;97224.80;108588;1264;125085;-84
2022/07/20 05:28:51;;;;;;;5.50;2.90;;;;;;;31.91;37.01;97223.84;108844;1264;22566;-84
2022/07/20 05:31:32;;;;;;;4.40;2.90;;;;;;;32.41;35.18;97230.48;108860;1263;22638;-84
2022/07/20 05:34:09;;;;;;;5.10;3.20;;;;;;;33.03;34.45;97229.20;108858;1264;24125;-84
2022/07/20 05:36:41;;;;;;;6.30;2.70;;;;;;;32.99;32.73;97234.59;108551;1264;124915;-84
2022/07/20 05:39:22;;;;;;;7.20;2.90;;;;;;;32.64;32.38;97232.30;108772;1264;22718;-84
2022/07/20 05:42:02;;;;;;;5.40;2.70;;;;;;;32.85;32.19;97231.77;108695;1264;22537;-84
2022/07/20 05:44:36;;;;;;;4.40;2.70;;;;;;;32.92;31.63;97233.89;108744;1264;22569;-84
2022/07/20 05:47:09;;;;;;;3.50;2.80;;;;;;;32.84;31.11;97235.72;108639;1264;80142;-84
2022/07/20 05:49:51;;;;;;;4.10;2.70;;;;;;;32.97;30.91;97233.83;108833;1264;22990;-84
2022/07/20 05:52:22;;;;;;;3.70;2.80;;;;;;;32.97;30.82;97233.20;108822;1264;22676;-84
2022/07/20 05:54:55;;;;;;;3.60;2.50;;;;;;;32.81;30.40;97227.34;108793;1264;22539;-84
2022/07/20 05:57:31;;;;;;;3.50;2.80;;;;;;;32.82;30.88;97229.12;108593;1264;100574;-85
2022/07/20 06:00:07;;;;;;;4.00;2.60;;;;;;;33.28;30.36;97231.65;108769;1264;23374;-85
2022/07/20 06:02:46;;;;;;;4.50;2.40;;;;;;;33.47;29.71;97227.34;108740;1264;22826;-85
2022/07/20 06:05:21;;;;;;;5.50;3.00;;;;;;;33.29;29.40;97228.19;108580;1264;96618;-84
2022/07/20 06:08:01;;;;;;;3.50;3.00;;;;;;;33.17;29.78;97230.92;108644;1261;22561;-85
2022/07/20 06:10:39;;;;;;;3.60;2.90;;;;;;;33.67;29.65;97237.49;108779;1264;24228;-85
2022/07/20 06:13:19;;;;;;;3.40;2.80;;;;;;;33.67;29.09;97238.22;108774;1263;22627;-85
2022/07/20 06:15:53;;;;;;;4.80;2.80;;;;;;;33.64;29.67;97241.46;104508;1264;5404585;-85
2022/07/20 06:18:33;;;;;;;4.30;2.80;;;;;;;34.35;29.28;97244.23;108698;1264;22520;-85
2022/07/20 06:21:05;;;;;;;3.40;2.50;;;;;;;34.75;28.61;97246.20;108795;1264;22571;-85
2022/07/20 06:23:40;;;;;;;4.10;2.40;;;;;;;34.77;28.55;97246.81;108785;1264;22681;-85
2022/07/20 06:26:16;;;;;;;4.30;2.70;;;;;;;35.51;28.79;97249.27;106769;1263;2540185;-85
2022/07/20 06:28:49;;;;;;;5.00;2.70;;;;;;;36.17;27.47;97248.32;108821;1264;22520;-85
2022/07/20 06:31:21;;;;;;;5.90;2.90;;;;;;;35.95;27.40;97252.00;108863;1264;22543;-85
2022/07/20 06:33:57;;;;;;;3.80;2.80;;;;;;;36.41;27.43;97255.14;108854;1263;22694;-85
2022/07/20 06:36:34;;;;;;;3.20;2.60;;;;;;;36.90;27.47;97255.45;108612;1264;120915;-85
2022/07/20 06:39:17;;;;;;;3.50;2.60;;;;;;;37.72;26.46;97257.51;108648;1264;22640;-85
2022/07/20 06:41:50;;;;;;;6.70;2.90;;;;;;;38.43;26.56;97259.84;108774;1264;22716;-85
2022/07/20 06:44:25;;;;;;;4.10;2.50;;;;;;;38.88;25.72;97262.98;108803;1264;22586;-85
2022/07/20 06:46:58;;;;;;;4.10;2.60;;;;;;;38.96;25.18;97262.86;108600;1264;107040;-85
2022/07/20 06:49:42;;;;;;;4.30;2.60;;;;;;;38.48;25.25;97261.20;108679;1264;22536;-85
2022/07/20 06:52:20;;;;;;;2.90;2.50;;;;;;;38.66;25.27;97260.35;108786;1264;24221;-85
2022/07/20 06:55:00;;;;;;;4.20;2.40;;;;;;;38.94;24.91;97257.88;108778;1264;22674;-85
2022/07/20 06:57:34;;;;;;;3.30;2.50;;;;;;;39.00;25.30;97262.55;108831;1264;22555;-85
2022/07/20 07:00:12;;;;;;;2.80;2.30;;;;;;;39.60;24.59;97260.20;108806;1264;22682;-85
2022/07/20 07:02:49;;;;;;;3.30;2.50;;;;;;;39.58;24.19;97261.93;108778;1264;22541;-85
2022/07/20 07:05:26;;;;;;;4.00;2.50;;;;;;;39.96;24.47;97257.98;108646;1262;90012;-85
2022/07/20 07:08:10;;;;;;;4.00;2.40;;;;;;;40.64;24.33;97260.13;108761;1263;24273;-85
2022/07/20 09:34:37;;;;;;;4.80;2.70;;;;;;;33.79;25.31;97226.63;108871;1264;22638;-84
2022/07/20 09:37:18;;;;;;;5.10;3.00;;;;;;;33.40;26.29;97227.65;107298;1264;1880887;-84
2022/07/20 09:40:04;;;;;;;5.40;2.60;;;;;;;32.89;27.36;97220.67;108862;1264;22510;-84
2022/07/20 09:42:46;;;;;;;4.10;2.80;;;;;;;32.25;28.20;97220.89;108845;1264;22609;-84
2022/07/20 09:45:36;;;;;;;6.20;3.10;;;;;;;32.13;29.11;97218.00;108756;1263;80924;-83
2022/07/20 09:48:12;;;;;;;8.00;3.00;;;;;;;32.53;30.33;97223.30;108834;1264;25924;-84
2022/07/20 09:50:47;;;;;;;5.40;2.80;;;;;;;33.04;30.35;97222.36;108813;1263;25832;-83
2022/07/20 09:53:26;;;;;;;6.40;3.10;;;;;;;33.47;29.56;97219.55;108818;1263;22611;-83
2022/07/20 09:56:11;;;;;;;5.00;3.20;;;;;;;33.36;28.78;97222.13;108554;1264;92075;-83
2022/07/20 09:58:45;;;;;;;4.80;3.00;;;;;;;32.89;29.59;97222.16;108582;1264;22637;-83
2022/07/20 10:01:32;;;;;;;5.50;3.40;;;;;;;33.13;29.71;97223.45;108860;1264;22529;-83
2022/07/20 10:04:09;;;;;;;4.90;2.70;;;;;;;33.40;29.98;97220.91;108845;1262;23229;-83
2022/07/20 10:06:54;;;;;;;4.30;3.10;;;;;;;33.54;29.44;97216.48;108625;1264;146635;-83
2022/07/20 10:12:32;;;;;;;3.40;2.70;;;;;;;33.62;28.76;97217.13;108741;1264;25364;-84
2022/07/20 10:15:28;;;;;;;6.40;3.40;;;;;;;33.20;27.93;97214.33;108871;1264;22626;-84
2022/07/20 10:18:14;;;;;;;3.70;2.90;;;;;;;32.56;27.89;97213.23;108804;1264;22569;-84
2022/07/20 10:21:26;;;;;;;4.30;3.20;;;;;;;32.26;28.83;97214.30;108600;1264;22751;-84
2022/07/20 10:24:22;;;;;;;4.80;3.10;;;;;;;32.34;29.26;97213.23;108826;1263;22833;-83
2022/07/20 10:27:28;;;;;;;5.10;2.80;;;;;;;32.66;29.43;97216.03;108597;1264;87717;-83
2022/07/20 10:30:21;;;;;;;4.50;2.70;;;;;;;32.99;28.87;97213.40;108665;1264;24499;-84
2022/07/20 10:33:00;;;;;;;8.40;3.30;;;;;;;33.14;28.41;97213.00;108853;1264;22550;-83
2022/07/20 10:35:38;;;;;;;5.40;2.70;;;;;;;33.27;28.41;97212.11;108477;1264;72843;-83
2022/07/20 10:38:32;;;;;;;4.70;2.90;;;;;;;33.02;27.80;97210.39;108829;1264;22532;-83
2022/07/20 10:41:52;;;;;;;;;;;;;;;;;;;;;
2022/07/20 10:44:57;;;;;;;5.10;3.00;;;;;;;32.88;28.26;97212.99;108837;1264;23205;-83
2022/07/20 10:51:26;;;;;;;4.00;2.90;;;;;;;32.09;28.44;97204.95;108671;1264;22515;-83
2022/07/20 10:54:34;;;;;;;7.40;3.10;;;;;;;31.85;29.25;97203.82;108647;1265;25249;-82
2022/07/20 10:57:59;;;;;;;5.60;3.30;;;;;;;31.57;30.12;97202.82;108670;1261;22557;-83
2022/07/20 11:00:48;;;;;;;4.20;2.60;;;;;;;31.44;29.93;97205.03;107575;1264;998933;-82
2022/07/20 11:03:44;;;;;;;5.10;2.70;;;;;;;31.28;29.61;97201.67;108762;1264;22548;-82
2022/07/20 11:06:24;;;;;;;4.30;3.10;;;;;;;31.08;30.25;97198.14;107031;1264;2150794;-83
2022/07/20 11:09:11;;;;;;;5.50;3.20;;;;;;;30.97;30.55;97199.59;108411;1264;22634;-83
2022/07/20 11:11:51;;;;;;;4.10;2.60;;;;;;;31.09;29.82;97196.02;108624;1264;22783;-82
2022/07/20 11:14:32;;;;;;;4.40;2.60;;;;;;;31.33;30.29;97197.80;108834;1263;22644;-82
2022/07/20 11:17:12;;;;;;;4.40;2.90;;;;;;;31.67;30.31;97193.45;108712;1264;83750;-82
2022/07/20 11:19:48;;;;;;;4.10;2.60;;;;;;;31.87;30.54;97190.17;108888;1264;22546;-82
2022/07/20 11:22:23;;;;;;;4.40;2.50;;;;;;;31.90;29.29;97186.16;108908;1264;22544;-82
2022/07/20 11:25:01;;;;;;;5.30;2.70;;;;;;;31.70;29.36;97184.33;108808;1264;22554;-82
2022/07/20 11:27:39;;;;;;;6.90;3.10;;;;;;;31.72;29.56;97180.88;108654;1263;110999;-82
2022/07/20 11:30:16;;;;;;;4.20;3.20;;;;;;;31.86;29.33;97183.13;108792;1264;22590;-82
2022/07/20 11:33:01;;;;;;;4.40;3.10;;;;;;;31.92;29.04;97183.86;108839;1264;22553;-81
2022/07/20 11:35:38;;;;;;;3.70;2.90;;;;;;;31.90;29.20;97182.39;106757;1264;2631481;-82
2022/07/20 11:38:11;;;;;;;8.40;3.60;;;;;;;31.74;29.31;97181.72;108835;1264;22549;-82
2022/07/20 11:40:42;;;;;;;4.50;3.20;;;;;;;31.43;29.64;97183.02;108852;1263;23399;-82
2022/07/20 11:43:16;;;;;;;6.90;3.30;;;;;;;31.38;29.65;97180.85;108827;1264;22637;-82
2022/07/20 11:45:47;;;;;;;3.60;2.90;;;;;;;31.24;30.32;97182.73;108621;1264;134318;-82
2022/07/20 11:48:27;;;;;;;3.50;2.50;;;;;;;31.30;30.40;97178.33;108846;1264;22537;-82
2022/07/20 11:50:59;;;;;;;6.10;3.10;;;;;;;31.52;30.97;97178.66;108803;1264;22954;-82
2022/07/20 11:53:42;;;;;;;6.30;2.80;;;;;;;31.75;31.03;97173.03;108873;1264;22554;-82
2022/07/20 11:56:21;;;;;;;5.30;3.10;;;;;;;31.70;31.03;97171.79;106890;1265;2088806;-82
2022/07/20 11:59:01;;;;;;;4.80;2.90;;;;;;;31.61;30.40;97174.36;108833;1262;23874;-82
2022/07/20 12:01:33;;;;;;;3.30;2.70;;;;;;;31.32;30.56;97173.94;108859;1264;22611;-82
2022/07/20 12:04:11;;;;;;;5.90;2.90;;;;;;;31.01;30.14;97171.56;108804;1264;22563;-82
2022/07/20 12:06:57;;;;;;;3.90;2.90;;;;;;;30.84;31.17;97171.33;108597;1264;122982;-82
2022/07/20 12:09:39;;;;;;;4.50;2.90;;;;;;;30.85;31.22;97167.42;108819;1264;22623;-82
2022/07/20 12:15:12;;;;;;;3.30;2.40;;;;;;;30.70;31.24;97168.89;108626;1264;83826;-81
2022/07/20 12:17:58;;;;;;;5.00;2.60;;;;;;;30.78;32.05;97166.83;108821;1264;22568;-82
2022/07/20 12:20:33;;;;;;;4.20;2.80;;;;;;;30.83;30.63;97166.88;108825;1264;22532;-82
2022/07/20 12:23:08;;;;;;;4.80;2.70;;;;;;;30.76;31.57;97164.08;108793;1264;22533;-82
2022/07/20 12:25:45;;;;;;;5.20;2.60;;;;;;;30.87;31.47;97159.83;106628;1264;2696034;-82
2022/07/20 12:28:33;;;;;;;4.60;2.70;;;;;;;30.83;31.82;97162.66;108789;1264;22724;-82
2022/07/20 12:31:19;;;;;;;4.40;2.70;;;;;;;30.91;31.76;97162.93;108787;1264;22537;-82
2022/07/20 12:34:23;;;;;;;3.30;2.60;;;;;;;31.01;31.35;97163.42;108753;1264;22647;-82
2022/07/20 12:36:54;;;;;;;5.40;3.20;;;;;;;30.86;31.31;97160.08;108034;1271;82922;-81
2022/07/20 12:39:40;;;;;;;3.90;2.60;;;;;;;30.78;31.34;97157.98;108658;1264;22539;-82
2022/07/20 12:42:19;;;;;;;6.00;3.00;;;;;;;30.77;32.09;97158.84;108727;1264;24202;-81
2022/07/20 12:45:02;;;;;;;5.80;2.90;;;;;;;30.61;30.83;97158.10;108557;1265;22696;-82
2022/07/20 12:47:40;;;;;;;4.70;2.60;;;;;;;30.54;31.99;97159.67;108755;1264;23463;-82
2022/07/20 12:50:18;;;;;;;4.00;2.80;;;;;;;30.75;32.86;97160.58;108504;1265;22532;-82
2022/07/20 12:52:54;;;;;;;3.90;2.50;;;;;;;30.93;32.30;97158.77;108776;1264;25244;-82
2022/07/20 12:55:41;;;;;;;4.70;3.10;;;;;;;30.91;31.63;97156.67;108311;1265;114684;-82
2022/07/20 12:58:14;;;;;;;5.80;3.10;;;;;;;30.69;31.78;97158.86;108847;1261;24033;-81
2022/07/20 13:00:45;;;;;;;6.90;3.00;;;;;;;30.56;31.90;97156.87;108812;1264;23836;-81
2022/07/20 13:03:19;;;;;;;6.20;3.00;;;;;;;30.66;32.21;97159.49;108821;1264;22538;-81
2022/07/20 13:05:54;;;;;;;4.70;2.80;;;;;;;30.65;32.06;97157.55;108667;1264;77141;-82
2022/07/20 13:08:33;;;;;;;5.40;2.90;;;;;;;30.68;32.45;97160.67;108739;1264;22520;-81
2022/07/20 13:11:07;;;;;;;4.40;2.90;;;;;;;30.89;32.46;97158.01;108770;1264;22558;-81
2022/07/20 13:13:52;;;;;;;4.80;2.50;;;;;;;30.97;32.28;97157.19;108736;1264;23080;-81
2022/07/20 13:16:27;;;;;;;4.60;3.10;;;;;;;30.99;32.03;97156.24;108568;1264;102761;-81
2022/07/20 13:18:58;;;;;;;4.90;2.80;;;;;;;31.13;31.35;97156.56;108692;1264;22601;-81
2022/07/20 13:21:33;;;;;;;4.20;2.60;;;;;;;31.16;30.82;97153.18;108803;1264;22539;-82
2022/07/20 13:24:09;;;;;;;3.90;2.30;;;;;;;31.05;30.01;97149.09;108818;1264;22554;-82
2022/07/20 13:26:46;;;;;;;3.40;2.50;;;;;;;30.81;29.43;97144.52;108660;1264;84502;-82
2022/07/20 13:29:19;;;;;;;2.90;2.30;;;;;;;30.73;30.95;97144.64;108818;1264;24383;-82
2022/07/20 13:31:51;;;;;;;3.50;2.50;;;;;;;30.92;30.75;97140.86;108832;1264;22542;-82
2022/07/20 13:34:25;;;;;;;5.40;2.40;;;;;;;30.95;30.19;97140.30;108817;1264;22960;-82
2022/07/20 13:36:57;;;;;;;3.60;2.40;;;;;;;30.98;30.47;97136.45;108612;1264;92866;-82
2022/07/20 13:39:31;;;;;;;5.20;2.50;;;;;;;31.02;30.31;97139.02;108815;1264;25982;-81
2022/07/20 13:42:08;;;;;;;3.90;2.20;;;;;;;30.91;29.70;97138.29;108813;1264;25271;-82
2022/07/20 13:44:41;;;;;;;4.70;2.40;;;;;;;30.88;29.88;97133.38;108804;1264;22793;-82
2022/07/20 13:47:18;;;;;;;4.30;2.40;;;;;;;30.93;30.37;97136.31;106714;1264;2628182;-81
2022/07/20 13:49:49;;;;;;;4.60;2.90;;;;;;;31.06;30.41;97136.95;108840;1264;22595;-81
2022/07/20 13:52:29;;;;;;;4.00;2.70;;;;;;;31.21;31.11;97134.15;108840;1264;22683;-82
2022/07/20 13:55:02;;;;;;;5.40;2.60;;;;;;;31.31;29.83;97129.47;108815;1264;22549;-81
2022/07/20 13:57:37;;;;;;;3.30;2.30;;;;;;;31.04;28.86;97126.02;108812;1264;24343;-81
2022/07/20 14:00:14;;;;;;;4.30;2.50;;;;;;;30.79;29.19;97123.40;108850;1264;22551;-81
2022/07/20 14:02:49;;;;;;;5.10;3.00;;;;;;;30.72;29.53;97123.83;108870;1264;23471;-81
2022/07/20 14:05:21;;;;;;;6.10;2.80;;;;;;;30.78;30.16;97118.55;108645;1264;90800;-81
2022/07/20 14:08:01;;;;;;;3.30;2.90;;;;;;;30.91;29.96;97114.42;108835;1264;22674;-81
2022/07/20 14:10:32;;;;;;;6.60;2.90;;;;;;;31.05;30.34;97114.51;108829;1265;22545;-81
2022/07/20 14:13:06;;;;;;;5.60;3.40;;;;;;;31.18;30.17;97110.77;108823;1264;22549;-81
2022/07/20 14:15:44;;;;;;;4.00;3.00;;;;;;;31.19;29.98;97111.39;108650;1265;96281;-81
2022/07/20 14:18:20;;;;;;;7.90;3.50;;;;;;;31.14;29.50;97107.02;108801;1264;24291;-81
2022/07/20 14:20:51;;;;;;;4.20;3.00;;;;;;;30.86;29.12;97109.67;108819;1264;22638;-81
2022/07/20 14:23:33;;;;;;;8.40;4.20;;;;;;;30.79;29.57;97110.02;108804;1265;22561;-81
2022/07/20 14:26:04;;;;;;;6.80;3.50;;;;;;;30.72;29.20;97113.66;108613;1265;84650;-81
2022/07/20 14:28:38;;;;;;;5.70;3.60;;;;;;;30.72;30.19;97114.73;108816;1265;22594;-81
2022/07/20 14:31:11;;;;;;;5.20;3.50;;;;;;;30.93;31.12;97114.42;108839;1265;22552;-82
2022/07/20 14:33:57;;;;;;;5.80;3.50;;;;;;;31.09;30.85;97112.98;108842;1264;23706;-82
2022/07/20 14:36:28;;;;;;;4.20;3.50;;;;;;;31.06;30.09;97109.48;107069;1265;2235982;-81
2022/07/20 14:39:02;;;;;;;6.60;3.40;;;;;;;30.90;29.97;97103.55;108808;1264;22526;-82
2022/07/20 14:41:33;;;;;;;6.60;3.50;;;;;;;30.82;29.94;97101.95;108821;1265;23006;-73
2022/07/20 14:44:04;;;;;;;7.00;3.60;;;;;;;30.78;30.07;97100.89;108549;1265;22521;-73
2022/07/20 14:46:36;;;;;;;6.20;3.90;;;;;;;30.71;30.74;97099.83;108527;1263;27369;-74
2022/07/20 14:49:09;;;;;;;8.40;4.20;;;;;;;30.87;30.91;97094.49;108637;1264;22621;-73
2022/07/20 14:51:40;;;;;;;6.30;3.80;;;;;;;31.02;31.05;97098.09;108624;1265;22524;-74